Attica, New York
Current Conditions -  °F | °C
As of 2:54 PM on Thursday 18 Dec 2014 (Local Time) from KBUF Reporting Station
Light Snow Light Snow  
Wind Chill: -6°   Ceiling: 1500
Heat Index: -1°   Visibility: 9mi
Dew Point: -3°   Wind: 12mph
Humidity: 82%   Direction: 260°W
Pressure: 30.05"   Gusts: NA
Location:  42.86°N, 78.28°W
Report Text: KBUF 181954Z 26010KT 9SM -SN OVC015 M01/M03 A3005 RMK AO2 SLP186 CIG 013V017 PCPN VRY LGT P0000 T10061033
Loading
Personal Weather Stations






























Interactive Weather Map New forecast layout! Learn more

10-Day Weather Forecast

Advertisements
Track Severe Weather on mobile